createdAt,value
2022-12-12T00:01:31.507Z,89.47
2022-12-12T00:03:59.274Z,89.59
2022-12-12T00:06:28.545Z,89.97
2022-12-12T00:08:56.290Z,90.46
2022-12-12T00:11:25.297Z,90.43
2022-12-12T00:13:54.252Z,90.40
2022-12-12T00:16:23.964Z,89.75
2022-12-12T00:18:52.259Z,90.19
2022-12-12T00:21:22.346Z,90.22
2022-12-12T00:23:50.028Z,90.67
2022-12-12T00:26:21.363Z,90.59
2022-12-12T00:28:49.314Z,91.24
2022-12-12T00:31:17.492Z,92.13
2022-12-12T00:33:49.900Z,92.09
2022-12-12T00:36:19.304Z,91.77
2022-12-12T00:38:46.994Z,92.34
2022-12-12T00:41:14.664Z,92.41
2022-12-12T00:43:42.616Z,92.17
2022-12-12T00:46:12.180Z,92.03
2022-12-12T00:48:39.768Z,92.07
2022-12-12T00:51:10.928Z,91.90
2022-12-12T00:53:39.354Z,91.51
2022-12-12T00:56:07.603Z,92.04
2022-12-12T00:58:35.307Z,91.94
2022-12-12T01:01:06.315Z,91.54
2022-12-12T01:03:34.587Z,91.00
2022-12-12T01:06:02.247Z,91.64
2022-12-12T01:08:31.174Z,91.64
2022-12-12T01:10:58.773Z,91.22
2022-12-12T01:13:26.969Z,91.70
2022-12-12T01:15:54.634Z,92.22
2022-12-12T01:18:22.856Z,93.47
2022-12-12T01:20:50.450Z,92.95
2022-12-12T01:23:17.962Z,92.16
2022-12-12T01:25:46.856Z,93.99
2022-12-12T01:28:14.577Z,93.44
2022-12-12T01:30:42.289Z,93.29
2022-12-12T01:33:09.904Z,92.38
2022-12-12T01:35:37.456Z,93.31
2022-12-12T01:38:05.029Z,92.84
2022-12-12T01:40:32.624Z,93.34
2022-12-12T01:43:01.618Z,94.17
2022-12-12T01:46:25.554Z,93.91
2022-12-12T01:48:57.370Z,94.33
2022-12-12T01:51:28.255Z,94.79
2022-12-12T01:54:05.125Z,94.94
2022-12-12T01:56:33.987Z,94.87
2022-12-12T01:59:05.854Z,94.70
2022-12-12T02:01:33.629Z,94.55
2022-12-12T02:04:03.018Z,94.65
2022-12-12T02:06:31.424Z,95.23
2022-12-12T02:09:02.147Z,95.53
2022-12-12T02:11:30.373Z,95.88
2022-12-12T02:14:00.029Z,95.13
2022-12-12T02:16:42.118Z,95.23
2022-12-12T02:19:49.773Z,95.36
2022-12-12T02:22:34.135Z,96.18
2022-12-12T02:25:17.446Z,95.90
2022-12-12T02:28:08.813Z,95.98
2022-12-12T02:30:44.306Z,95.33
2022-12-12T02:33:28.076Z,95.79
2022-12-12T02:36:05.232Z,95.24
2022-12-12T02:38:43.103Z,95.39
2022-12-12T02:41:18.925Z,95.97
2022-12-12T02:43:57.603Z,96.60
2022-12-12T02:46:29.265Z,96.57
2022-12-12T02:49:03.876Z,96.56
2022-12-12T02:51:34.055Z,96.52
2022-12-12T02:54:01.750Z,96.23
2022-12-12T02:56:46.187Z,96.16
2022-12-12T02:59:18.273Z,95.88
2022-12-12T03:01:57.372Z,96.60
2022-12-12T03:04:48.581Z,95.26
2022-12-12T03:07:49.338Z,95.90
2022-12-12T03:10:30.742Z,95.39
2022-12-12T03:13:05.299Z,95.70
2022-12-12T03:15:45.513Z,96.84
2022-12-12T03:18:25.198Z,96.74
2022-12-12T03:21:03.462Z,96.23
2022-12-12T03:23:35.558Z,96.49
2022-12-12T03:26:07.330Z,96.13
2022-12-12T03:28:38.947Z,96.72
2022-12-12T03:31:13.077Z,96.57
2022-12-12T03:33:45.325Z,96.16
2022-12-12T03:36:18.073Z,96.12
2022-12-12T03:38:57.166Z,96.51
2022-12-12T03:41:30.214Z,96.57
2022-12-12T03:44:03.850Z,96.71
2022-12-12T03:46:38.003Z,96.47
2022-12-12T03:49:13.679Z,96.07
2022-12-12T03:51:49.459Z,96.22
2022-12-12T03:54:21.928Z,96.62
2022-12-12T03:56:55.496Z,96.30
2022-12-12T03:59:27.868Z,96.17
2022-12-12T04:02:00.872Z,96.43
2022-12-12T04:04:35.016Z,95.42
2022-12-12T04:07:14.715Z,95.13
2022-12-12T04:10:01.378Z,96.04
2022-12-12T04:12:53.790Z,95.61
2022-12-12T04:15:40.921Z,95.48
2022-12-12T04:18:17.114Z,95.40
2022-12-12T04:21:05.992Z,95.93
2022-12-12T04:23:42.211Z,96.24
2022-12-12T04:26:34.865Z,95.87
2022-12-12T04:29:10.308Z,96.06
2022-12-12T04:31:42.121Z,95.90
2022-12-12T04:34:15.882Z,96.74
2022-12-12T04:36:48.008Z,96.38
2022-12-12T04:39:21.372Z,96.63
2022-12-12T04:41:51.395Z,96.74
2022-12-12T04:44:21.392Z,96.47
2022-12-12T04:46:53.542Z,96.34
2022-12-12T04:49:25.117Z,96.26
2022-12-12T04:51:56.843Z,96.71
2022-12-12T04:54:31.125Z,96.62
2022-12-12T04:57:03.927Z,96.08
2022-12-12T04:59:31.794Z,95.59
2022-12-12T05:02:05.135Z,95.66
2022-12-12T05:04:41.479Z,96.30
2022-12-12T05:07:13.772Z,96.66
2022-12-12T05:09:43.686Z,96.62
2022-12-12T05:12:11.408Z,97.10
2022-12-12T05:14:38.966Z,97.26
2022-12-12T05:17:10.636Z,97.43
2022-12-12T05:19:38.187Z,96.67
2022-12-12T05:22:05.718Z,96.66
2022-12-12T05:24:33.257Z,96.20
2022-12-12T05:27:02.278Z,96.71
2022-12-12T05:29:29.853Z,97.05
2022-12-12T05:31:57.742Z,97.11
2022-12-12T05:34:25.704Z,96.97
2022-12-12T05:36:53.370Z,96.77
2022-12-12T05:39:20.946Z,98.02
2022-12-12T05:41:48.521Z,100.00
2022-12-12T05:44:17.427Z,100.00
2022-12-12T05:46:45.523Z,100.00
2022-12-12T05:49:13.088Z,100.00
2022-12-12T05:51:40.682Z,99.43
2022-12-12T05:54:08.324Z,97.07
2022-12-12T05:56:35.866Z,96.02
2022-12-12T05:59:03.714Z,95.47
2022-12-12T06:01:32.704Z,94.72
2022-12-12T06:04:00.303Z,93.00
2022-12-12T06:06:27.888Z,91.47
2022-12-12T06:08:55.462Z,92.20
2022-12-12T06:11:23.048Z,91.04
2022-12-12T06:13:50.649Z,90.34
2022-12-12T06:16:21.176Z,91.23
2022-12-12T06:18:54.435Z,92.56
2022-12-12T06:21:22.085Z,91.78
2022-12-12T06:23:49.856Z,90.12
2022-12-12T06:26:19.278Z,90.90
2022-12-12T06:28:47.623Z,92.17
2022-12-12T06:31:16.616Z,91.65
2022-12-12T06:33:45.315Z,91.03
2022-12-12T06:36:19.014Z,90.67
2022-12-12T06:38:46.633Z,90.43
2022-12-12T06:41:15.938Z,90.08
2022-12-12T06:43:43.861Z,90.60
2022-12-12T06:46:15.387Z,90.73
2022-12-12T06:48:43.957Z,90.44
2022-12-12T06:51:16.539Z,91.39
2022-12-12T06:53:44.274Z,92.43
2022-12-12T06:56:15.096Z,92.76
2022-12-12T06:58:42.955Z,90.96
2022-12-12T07:01:12.521Z,91.53
2022-12-12T07:03:40.744Z,91.71
2022-12-12T07:06:08.690Z,91.09
2022-12-12T07:08:38.257Z,91.37
2022-12-12T07:11:08.300Z,91.67
2022-12-12T07:13:36.363Z,91.80
2022-12-12T07:16:04.084Z,91.51
2022-12-12T07:18:31.984Z,91.55
2022-12-12T07:20:59.697Z,90.52
2022-12-12T07:23:27.258Z,91.49
2022-12-12T07:25:56.124Z,91.54
2022-12-12T07:28:23.772Z,91.97
2022-12-12T07:30:51.437Z,92.22
2022-12-12T07:33:19.532Z,91.87
2022-12-12T07:35:47.093Z,91.22
2022-12-12T07:38:15.612Z,92.04
2022-12-12T07:40:43.196Z,91.49
2022-12-12T07:43:12.162Z,90.77
2022-12-12T07:45:39.791Z,90.87
2022-12-12T07:48:07.403Z,91.04
2022-12-12T07:50:35.018Z,89.89
2022-12-12T07:53:02.589Z,89.44
2022-12-12T07:55:30.215Z,89.54
2022-12-12T07:57:57.909Z,91.39
2022-12-12T08:00:27.189Z,91.66
2022-12-12T08:02:54.760Z,90.58
2022-12-12T08:05:22.388Z,90.18
2022-12-12T08:07:50.334Z,88.70
2022-12-12T08:10:18.209Z,89.50
2022-12-12T08:12:45.837Z,88.73
2022-12-12T08:15:16.436Z,89.07
2022-12-12T08:17:45.716Z,88.45
2022-12-12T08:20:13.262Z,89.17
2022-12-12T08:22:41.610Z,88.40
2022-12-12T08:25:10.993Z,88.24
2022-12-12T08:27:38.749Z,98.23
2022-12-12T08:30:08.432Z,95.45
2022-12-12T08:32:36.478Z,91.08
2022-12-12T08:35:06.178Z,88.85
2022-12-12T08:37:34.117Z,89.10
2022-12-12T08:40:02.061Z,87.91
2022-12-12T08:42:29.575Z,87.34
2022-12-12T08:44:57.120Z,88.12
2022-12-12T08:47:24.729Z,87.17
2022-12-12T08:49:52.317Z,85.22
2022-12-12T08:52:21.226Z,85.57
2022-12-12T08:54:48.789Z,85.84
2022-12-12T08:57:17.198Z,84.29
2022-12-12T08:59:45.931Z,83.99
2022-12-12T09:02:13.968Z,83.96
2022-12-12T09:04:41.833Z,84.46
2022-12-12T09:07:09.473Z,84.16
2022-12-12T09:09:38.351Z,83.25
2022-12-12T09:12:06.383Z,80.15
2022-12-12T09:14:34.276Z,83.04
2022-12-12T09:17:01.858Z,82.10
2022-12-12T09:19:29.419Z,82.03
2022-12-12T09:21:56.958Z,81.65
2022-12-12T09:24:25.392Z,80.08
2022-12-12T09:26:54.575Z,79.67
2022-12-12T09:29:22.122Z,97.63
2022-12-12T09:31:49.817Z,83.87
2022-12-12T09:34:17.646Z,80.78
2022-12-12T09:36:45.162Z,79.81
2022-12-12T09:39:12.696Z,79.03
2022-12-12T09:41:40.319Z,77.34
2022-12-12T09:44:15.939Z,79.20
2022-12-12T09:46:47.231Z,78.68
2022-12-12T09:49:18.182Z,77.47
2022-12-12T09:51:49.091Z,76.91
2022-12-12T09:54:20.444Z,76.48
2022-12-12T09:57:05.536Z,78.63
2022-12-12T09:59:42.087Z,75.90
2022-12-12T10:02:38.082Z,75.10
2022-12-12T10:05:14.625Z,75.30
2022-12-12T10:07:46.485Z,75.15
2022-12-12T10:10:23.933Z,77.15
2022-12-12T10:12:53.701Z,77.46
2022-12-12T10:15:31.861Z,77.45
2022-12-12T10:18:03.761Z,76.10
2022-12-12T10:20:34.304Z,75.65
2022-12-12T10:23:07.043Z,73.97
2022-12-12T10:25:44.674Z,74.36
2022-12-12T10:28:15.306Z,74.76
2022-12-12T10:30:58.045Z,76.13
2022-12-12T10:33:36.608Z,76.20
2022-12-12T10:36:12.476Z,75.85
2022-12-12T10:38:59.579Z,75.72
2022-12-12T10:41:34.992Z,74.49
2022-12-12T10:44:06.775Z,74.06
2022-12-12T10:46:40.228Z,72.12
2022-12-12T10:49:16.164Z,71.87
2022-12-12T10:51:47.483Z,71.42
2022-12-12T10:54:19.257Z,71.33
2022-12-12T10:57:09.480Z,71.35
2022-12-12T10:59:42.194Z,69.07
2022-12-12T11:02:31.592Z,68.57
2022-12-12T11:05:02.045Z,69.06
2022-12-12T11:07:30.226Z,69.66
2022-12-12T11:10:01.888Z,67.76
2022-12-12T11:12:34.692Z,68.46
2022-12-12T11:15:05.859Z,66.52
2022-12-12T11:17:35.283Z,64.45
2022-12-12T11:20:07.316Z,63.88
2022-12-12T11:22:35.090Z,63.81
2022-12-12T11:25:03.153Z,63.85
2022-12-12T11:27:34.117Z,63.15
2022-12-12T11:30:03.646Z,62.19
2022-12-12T11:32:40.346Z,60.91
2022-12-12T11:35:22.964Z,59.78
2022-12-12T11:37:54.690Z,57.66
2022-12-12T11:40:26.025Z,56.65
2022-12-12T11:43:08.010Z,56.60
2022-12-12T11:45:36.677Z,57.89
2022-12-12T11:48:32.571Z,56.51
2022-12-12T11:51:00.294Z,57.61
2022-12-12T11:53:28.089Z,55.30
2022-12-12T11:56:07.267Z,56.24
2022-12-12T11:58:44.970Z,57.70
2022-12-12T12:01:20.833Z,54.55
2022-12-12T12:04:13.554Z,55.57
2022-12-12T12:06:55.497Z,53.55
2022-12-12T12:09:29.552Z,53.97
2022-12-12T12:12:05.298Z,53.92
2022-12-12T12:14:54.363Z,53.13
2022-12-12T12:17:33.446Z,51.11
2022-12-12T12:20:10.758Z,51.45
2022-12-12T12:22:53.664Z,50.94
2022-12-12T12:25:32.548Z,50.41
2022-12-12T12:28:12.647Z,51.13
2022-12-12T12:30:51.845Z,51.11
2022-12-12T12:33:32.510Z,51.11
2022-12-12T12:36:20.860Z,51.57
2022-12-12T12:38:57.491Z,50.84
2022-12-12T12:41:45.186Z,51.43
2022-12-12T12:44:27.918Z,49.92
2022-12-12T12:47:04.862Z,51.65
2022-12-12T12:49:35.837Z,50.22
2022-12-12T12:52:11.416Z,50.91
2022-12-12T12:54:42.028Z,50.49
2022-12-12T12:57:13.639Z,51.02
2022-12-12T12:59:45.669Z,52.16
2022-12-12T13:02:27.244Z,51.60
2022-12-12T13:05:06.708Z,50.04
2022-12-12T13:07:43.770Z,50.24
2022-12-12T13:10:19.374Z,50.65
2022-12-12T13:12:53.119Z,50.64
2022-12-12T13:15:25.624Z,50.65
2022-12-12T13:18:01.185Z,51.43
2022-12-12T13:20:32.077Z,50.28
2022-12-12T13:23:20.123Z,50.55
2022-12-12T13:25:55.424Z,50.27
2022-12-12T13:28:28.145Z,51.55
2022-12-12T13:31:13.226Z,51.66
2022-12-12T13:33:44.910Z,52.43
2022-12-12T13:36:24.462Z,52.76
2022-12-12T13:38:59.270Z,54.39
2022-12-12T13:41:28.353Z,53.68
2022-12-12T13:43:58.152Z,52.32
2022-12-12T13:46:44.556Z,51.66
2022-12-12T13:49:24.856Z,51.01
2022-12-12T13:51:52.442Z,51.61
2022-12-12T13:55:11.028Z,51.26
2022-12-12T13:58:16.661Z,50.56
2022-12-12T14:00:44.308Z,50.85
2022-12-12T14:03:28.759Z,51.69
2022-12-12T14:06:10.314Z,50.93
2022-12-12T14:08:40.003Z,50.96
2022-12-12T14:11:15.176Z,50.75
2022-12-12T14:13:50.685Z,52.17
2022-12-12T14:16:22.826Z,51.59
2022-12-12T14:19:38.152Z,52.26
2022-12-12T14:22:05.760Z,54.34
2022-12-12T14:24:48.213Z,54.79
2022-12-12T14:27:16.082Z,56.41
2022-12-12T14:29:45.828Z,55.73
2022-12-12T14:32:40.831Z,55.77
2022-12-12T14:35:28.983Z,57.18
2022-12-12T14:38:04.896Z,58.50
2022-12-12T14:40:34.263Z,59.37
2022-12-12T14:43:19.174Z,61.50
2022-12-12T14:45:58.211Z,61.55
2022-12-12T14:48:29.676Z,62.90
2022-12-12T14:51:06.186Z,62.46
2022-12-12T14:53:43.987Z,63.80
2022-12-12T14:56:13.937Z,64.59
2022-12-12T14:58:44.146Z,65.80
2022-12-12T15:01:13.650Z,66.45
2022-12-12T15:03:45.502Z,67.55
2022-12-12T15:06:28.598Z,68.05
2022-12-12T15:08:57.397Z,68.97
2022-12-12T15:11:27.075Z,70.08
2022-12-12T15:13:56.315Z,70.83
2022-12-12T15:16:30.766Z,71.52
2022-12-12T15:19:00.834Z,72.72
2022-12-12T15:21:31.918Z,73.31
2022-12-12T15:23:59.719Z,73.74
2022-12-12T15:26:30.006Z,74.92
2022-12-12T15:28:58.032Z,75.66
2022-12-12T15:31:27.684Z,76.08
2022-12-12T15:33:55.290Z,76.73
2022-12-12T15:36:27.566Z,77.17
2022-12-12T15:39:15.490Z,78.32
2022-12-12T15:41:44.263Z,78.38
2022-12-12T15:44:18.314Z,78.62
2022-12-12T15:46:50.228Z,79.01
2022-12-12T15:49:38.764Z,79.24
2022-12-12T15:52:13.144Z,78.61
2022-12-12T15:54:47.288Z,79.83
2022-12-12T15:57:17.758Z,80.29
2022-12-12T15:59:45.698Z,80.53
2022-12-12T16:02:29.391Z,81.49
2022-12-12T16:05:04.938Z,82.51
2022-12-12T16:07:37.435Z,81.43
2022-12-12T16:10:21.473Z,81.49
2022-12-12T16:13:03.346Z,82.14
2022-12-12T16:15:34.950Z,82.86
2022-12-12T16:18:07.893Z,83.59
2022-12-12T16:20:36.100Z,83.70
2022-12-12T16:23:17.652Z,83.98
2022-12-12T16:25:45.261Z,84.07
2022-12-12T16:28:25.656Z,83.24
2022-12-12T16:30:56.624Z,83.41
2022-12-12T16:33:29.940Z,84.67
2022-12-12T16:36:00.338Z,84.79
2022-12-12T16:38:29.204Z,85.30
2022-12-12T16:40:59.928Z,85.76
2022-12-12T16:43:28.573Z,86.04
2022-12-12T16:45:58.040Z,86.73
2022-12-12T16:48:33.429Z,87.14
2022-12-12T16:51:04.546Z,87.16
2022-12-12T16:53:32.086Z,88.02
2022-12-12T16:56:02.253Z,88.41
2022-12-12T16:58:30.097Z,88.25
2022-12-12T17:00:58.915Z,86.97
2022-12-12T17:03:28.164Z,87.35
2022-12-12T17:05:55.695Z,86.94
2022-12-12T17:08:23.816Z,87.90
2022-12-12T17:10:53.344Z,87.79
2022-12-12T17:13:38.788Z,87.78
2022-12-12T17:16:06.642Z,88.51
2022-12-12T17:18:35.649Z,88.76
2022-12-12T17:21:03.246Z,89.10
2022-12-12T17:23:30.834Z,88.70
2022-12-12T17:26:03.897Z,88.48
2022-12-12T17:28:33.679Z,89.00
2022-12-12T17:31:02.004Z,89.70
2022-12-12T17:33:30.111Z,89.60
2022-12-12T17:36:00.865Z,89.20
2022-12-12T17:38:30.169Z,88.73
2022-12-12T17:40:58.153Z,88.47
2022-12-12T17:43:26.261Z,89.30
2022-12-12T17:46:01.702Z,88.97
2022-12-12T17:48:31.020Z,90.46
2022-12-12T17:51:03.290Z,90.13
2022-12-12T17:53:36.459Z,89.61
2022-12-12T17:56:07.608Z,89.03
2022-12-12T17:58:36.148Z,88.82
2022-12-12T18:01:10.494Z,89.23
2022-12-12T18:03:38.306Z,89.16
2022-12-12T18:06:08.326Z,88.84
2022-12-12T18:08:36.101Z,89.96
2022-12-12T18:11:07.377Z,90.52
2022-12-12T18:13:35.038Z,90.07
2022-12-12T18:16:03.091Z,90.27
2022-12-12T18:18:30.749Z,90.63
2022-12-12T18:21:03.905Z,91.84
2022-12-12T18:23:32.953Z,92.10
2022-12-12T18:26:04.651Z,92.04
2022-12-12T18:28:32.271Z,91.90
2022-12-12T18:30:59.961Z,91.21
2022-12-12T18:33:27.535Z,91.19
2022-12-12T18:36:01.936Z,91.76
2022-12-12T18:38:29.950Z,91.73
2022-12-12T18:40:59.153Z,91.29
2022-12-12T18:43:27.614Z,91.19
2022-12-12T18:45:55.863Z,91.41
2022-12-12T18:48:23.722Z,91.03
2022-12-12T18:50:51.261Z,91.03
2022-12-12T18:53:18.915Z,91.02
2022-12-12T18:55:46.498Z,91.24
2022-12-12T18:58:15.391Z,91.85
2022-12-12T19:00:42.986Z,91.52
2022-12-12T19:03:10.699Z,91.03
2022-12-12T19:05:41.654Z,91.70
2022-12-12T19:08:09.323Z,90.91
2022-12-12T19:10:37.091Z,91.92
2022-12-12T19:13:05.415Z,92.36
2022-12-12T19:15:35.245Z,91.89
2022-12-12T19:18:02.785Z,91.98
2022-12-12T19:20:30.364Z,92.35
2022-12-12T19:22:57.918Z,92.01
2022-12-12T19:25:25.541Z,92.75
2022-12-12T19:27:53.130Z,92.33
2022-12-12T19:30:21.060Z,92.15
2022-12-12T19:32:50.014Z,92.41
2022-12-12T19:35:17.638Z,93.39
2022-12-12T19:37:45.325Z,92.45
2022-12-12T19:40:13.872Z,92.34
2022-12-12T19:42:41.660Z,93.01
2022-12-12T19:45:10.730Z,93.04
2022-12-12T19:47:38.326Z,92.86
2022-12-12T19:50:07.937Z,93.05
2022-12-12T19:52:35.458Z,94.20
2022-12-12T19:55:03.031Z,93.63
2022-12-12T19:57:31.323Z,92.76
2022-12-12T19:59:58.871Z,92.95
2022-12-12T20:02:26.593Z,95.50
2022-12-12T20:04:54.119Z,99.50
2022-12-12T20:07:23.096Z,97.82
2022-12-12T20:09:50.698Z,97.33
2022-12-12T20:12:18.261Z,96.06
2022-12-12T20:14:46.060Z,95.05
2022-12-12T20:17:13.937Z,94.19
2022-12-12T20:19:42.368Z,94.79
2022-12-12T20:22:10.043Z,94.94
2022-12-12T20:24:39.730Z,94.42
2022-12-12T20:27:08.812Z,94.63
2022-12-12T20:29:36.920Z,93.94
2022-12-12T20:32:04.888Z,93.64
2022-12-12T20:34:32.450Z,94.02
2022-12-12T20:37:00.000Z,94.12
2022-12-12T20:39:27.799Z,94.09
2022-12-12T20:41:57.642Z,93.74
2022-12-12T20:44:25.965Z,94.56
2022-12-12T20:46:54.024Z,93.79
2022-12-12T20:49:24.461Z,94.55
2022-12-12T20:51:55.824Z,94.24
2022-12-12T20:54:25.754Z,94.01
2022-12-12T20:56:53.878Z,94.09
2022-12-12T20:59:23.644Z,94.36
2022-12-12T21:01:51.822Z,94.34
2022-12-12T21:04:19.550Z,94.63
2022-12-12T21:06:49.362Z,94.19
2022-12-12T21:09:23.900Z,94.45
2022-12-12T21:11:53.014Z,94.70
2022-12-12T21:14:20.657Z,94.68
2022-12-12T21:16:49.634Z,94.79
2022-12-12T21:19:18.618Z,93.58
2022-12-12T21:21:46.347Z,94.45
2022-12-12T21:24:15.192Z,94.01
2022-12-12T21:26:42.872Z,94.04
2022-12-12T21:29:10.583Z,93.60
2022-12-12T21:31:48.283Z,94.00
2022-12-12T21:34:19.434Z,93.71
2022-12-12T21:36:47.040Z,94.24
2022-12-12T21:39:14.772Z,94.79
2022-12-12T21:41:43.749Z,94.87
2022-12-12T21:44:11.694Z,100.00
2022-12-12T21:46:41.728Z,100.00
2022-12-12T21:49:26.271Z,100.00
2022-12-12T21:51:57.249Z,100.00
2022-12-12T21:54:25.767Z,99.76
2022-12-12T21:56:55.645Z,98.53
2022-12-12T21:59:24.431Z,97.82
2022-12-12T22:01:52.523Z,96.85
2022-12-12T22:04:20.161Z,96.28
2022-12-12T22:06:47.840Z,96.17
2022-12-12T22:09:16.702Z,96.03
2022-12-12T22:11:48.325Z,95.88
2022-12-12T22:14:21.312Z,96.47
2022-12-12T22:16:49.515Z,96.59
2022-12-12T22:19:18.125Z,96.62
2022-12-12T22:21:47.300Z,96.44
2022-12-12T22:24:16.995Z,95.95
2022-12-12T22:26:46.328Z,95.93
2022-12-12T22:29:15.883Z,95.34
2022-12-12T22:31:44.513Z,95.22
2022-12-12T22:34:15.447Z,94.67
2022-12-12T22:36:43.080Z,94.70
2022-12-12T22:39:14.829Z,94.28
2022-12-12T22:41:43.701Z,93.98
2022-12-12T22:44:14.276Z,94.01
2022-12-12T22:46:44.155Z,93.88
2022-12-12T22:49:13.221Z,94.38
2022-12-12T22:51:40.867Z,93.86
2022-12-12T22:54:08.505Z,94.03
2022-12-12T22:56:37.678Z,93.59
2022-12-12T22:59:07.410Z,93.99
2022-12-12T23:01:35.612Z,98.46
2022-12-12T23:04:03.398Z,100.00
2022-12-12T23:06:32.593Z,100.00
2022-12-12T23:09:02.358Z,100.00
2022-12-12T23:11:31.533Z,97.71
2022-12-12T23:14:02.039Z,96.69
2022-12-12T23:16:31.633Z,95.65
2022-12-12T23:18:59.917Z,94.70
2022-12-12T23:21:27.823Z,94.31
2022-12-12T23:23:56.351Z,93.86
2022-12-12T23:26:25.721Z,93.64
2022-12-12T23:28:53.879Z,93.54
2022-12-12T23:31:24.161Z,93.84
2022-12-12T23:33:55.546Z,93.91
2022-12-12T23:36:24.134Z,93.51
2022-12-12T23:38:55.650Z,93.58
2022-12-12T23:41:23.587Z,93.79
2022-12-12T23:43:51.897Z,93.21
2022-12-12T23:46:29.208Z,94.09
2022-12-12T23:48:59.412Z,93.91
2022-12-12T23:51:28.661Z,93.59
2022-12-12T23:53:57.785Z,93.72
2022-12-12T23:56:25.792Z,93.85
2022-12-12T23:58:53.682Z,93.27
